createdAt,value
2018-04-17T00:00:24.778Z,87.11
2018-04-17T00:05:41.081Z,87.06
2018-04-17T00:08:09.751Z,86.35
2018-04-17T00:10:38.418Z,85.76
2018-04-17T00:13:07.090Z,85.11
2018-04-17T00:15:35.736Z,85.32
2018-04-17T00:18:04.417Z,85.63
2018-04-17T00:20:33.061Z,85.90
2018-04-17T00:23:01.730Z,85.94
2018-04-17T00:25:30.401Z,86.07
2018-04-17T00:27:59.634Z,86.21
2018-04-17T00:30:28.287Z,86.32
2018-04-17T00:32:56.977Z,86.42
2018-04-17T00:35:25.624Z,85.59
2018-04-17T00:37:54.299Z,85.71
2018-04-17T00:40:22.953Z,85.80
2018-04-17T00:42:51.631Z,85.02
2018-04-17T00:45:22.336Z,85.31
2018-04-17T00:47:50.998Z,85.58
2018-04-17T00:50:19.657Z,85.81
2018-04-17T00:52:48.349Z,85.14
2018-04-17T00:55:16.990Z,85.44
2018-04-17T00:57:47.159Z,85.64
2018-04-17T01:00:15.832Z,85.90
2018-04-17T01:02:44.824Z,86.18
2018-04-17T01:05:13.493Z,86.32
2018-04-17T01:07:42.151Z,86.71
2018-04-17T01:10:10.827Z,87.02
2018-04-17T01:12:39.477Z,87.10
2018-04-17T01:15:08.154Z,87.30
2018-04-17T01:17:36.783Z,87.33
2018-04-17T01:20:05.457Z,87.46
2018-04-17T01:22:34.114Z,87.67
2018-04-17T01:25:02.791Z,86.88
2018-04-17T01:27:31.789Z,87.06
2018-04-17T01:30:00.473Z,87.11
2018-04-17T01:32:29.139Z,87.22
2018-04-17T01:34:57.815Z,87.25
2018-04-17T01:37:26.463Z,87.54
2018-04-17T01:39:57.161Z,87.58
2018-04-17T01:42:25.824Z,87.83
2018-04-17T01:44:54.532Z,87.98
2018-04-17T01:47:23.771Z,88.11
2018-04-17T01:49:52.423Z,88.40
2018-04-17T01:52:21.129Z,88.44
2018-04-17T01:54:49.778Z,88.50
2018-04-17T01:57:18.467Z,88.81
2018-04-17T01:59:47.139Z,88.79
2018-04-17T02:02:15.831Z,88.89
2018-04-17T02:04:44.489Z,89.05
2018-04-17T02:07:13.180Z,89.04
2018-04-17T02:09:41.832Z,89.04
2018-04-17T02:12:10.908Z,89.00
2018-04-17T02:14:41.330Z,89.04
2018-04-17T02:17:15.219Z,89.25
2018-04-17T02:19:44.125Z,89.31
2018-04-17T02:22:14.054Z,89.28
2018-04-17T02:24:42.708Z,88.60
2018-04-17T02:27:11.719Z,88.64
2018-04-17T02:29:40.375Z,88.82
2018-04-17T02:32:09.056Z,88.87
2018-04-17T02:34:37.708Z,88.96
2018-04-17T02:37:06.402Z,88.94
2018-04-17T02:39:35.064Z,88.97
2018-04-17T02:42:03.713Z,89.07
2018-04-17T02:44:32.409Z,89.07
2018-04-17T02:47:01.073Z,89.11
2018-04-17T02:49:30.209Z,89.11
2018-04-17T02:51:58.871Z,89.05
2018-04-17T02:54:27.554Z,89.06
2018-04-17T02:56:56.203Z,89.00
2018-04-17T02:59:25.108Z,88.98
2018-04-17T03:01:54.021Z,88.96
2018-04-17T03:04:24.345Z,88.97
2018-04-17T03:06:52.992Z,89.02
2018-04-17T03:09:21.668Z,88.99
2018-04-17T03:11:50.324Z,88.87
2018-04-17T03:14:19.014Z,88.08
2018-04-17T03:16:47.663Z,88.03
2018-04-17T03:19:16.339Z,88.14
2018-04-17T03:21:44.997Z,88.18
2018-04-17T03:24:13.735Z,88.18
2018-04-17T03:26:42.380Z,88.27
2018-04-17T03:29:11.087Z,88.20
2018-04-17T03:31:39.773Z,88.25
2018-04-17T03:34:08.493Z,88.31
2018-04-17T03:36:37.161Z,88.29
2018-04-17T03:39:08.610Z,88.28
2018-04-17T03:41:37.285Z,88.35
2018-04-17T03:44:05.978Z,88.33
2018-04-17T03:46:34.669Z,88.25
2018-04-17T03:49:03.366Z,88.24
2018-04-17T03:51:32.077Z,88.32
2018-04-17T03:54:00.736Z,88.31
2018-04-17T03:56:29.425Z,88.26
2018-04-17T03:58:58.079Z,88.24
2018-04-17T04:01:26.756Z,87.45
2018-04-17T04:03:55.403Z,87.38
2018-04-17T04:06:24.096Z,87.50
2018-04-17T04:08:52.756Z,86.70
2018-04-17T04:11:21.441Z,86.76
2018-04-17T04:13:50.089Z,86.93
2018-04-17T04:16:55.738Z,86.94
2018-04-17T04:20:02.992Z,87.07
2018-04-17T04:23:08.521Z,87.07
2018-04-17T04:25:45.927Z,87.18
2018-04-17T04:28:14.625Z,87.18
2018-04-17T04:30:43.458Z,87.15
2018-04-17T04:33:12.161Z,86.22
2018-04-17T04:35:40.810Z,86.03
2018-04-17T04:38:09.461Z,86.01
2018-04-17T04:40:38.209Z,85.88
2018-04-17T04:43:06.871Z,85.80
2018-04-17T04:45:35.550Z,85.68
2018-04-17T04:48:04.192Z,85.45
2018-04-17T04:50:33.146Z,85.39
2018-04-17T04:53:01.785Z,85.29
2018-04-17T04:55:30.457Z,85.03
2018-04-17T04:57:59.106Z,84.80
2018-04-17T05:00:27.790Z,84.63
2018-04-17T05:02:56.426Z,84.56
2018-04-17T05:05:25.099Z,84.59
2018-04-17T05:07:53.755Z,84.49
2018-04-17T05:10:22.489Z,84.24
2018-04-17T05:12:51.160Z,83.95
2018-04-17T05:15:19.815Z,82.79
2018-04-17T05:17:48.458Z,82.55
2018-04-17T05:20:17.144Z,82.51
2018-04-17T05:22:45.791Z,82.58
2018-04-17T05:25:14.454Z,81.47
2018-04-17T05:27:43.131Z,81.58
2018-04-17T05:30:11.772Z,81.68
2018-04-17T05:32:40.438Z,81.62
2018-04-17T05:35:09.075Z,81.55
2018-04-17T05:37:37.764Z,81.44
2018-04-17T05:40:06.416Z,81.42
2018-04-17T05:42:35.069Z,81.34
2018-04-17T05:45:03.709Z,81.24
2018-04-17T05:47:32.343Z,81.15
2018-04-17T05:50:01.088Z,81.05
2018-04-17T05:52:29.771Z,81.08
2018-04-17T05:54:58.365Z,80.82
2018-04-17T05:57:26.998Z,79.44
2018-04-17T05:59:55.778Z,79.45
2018-04-17T06:02:24.417Z,79.59
2018-04-17T06:04:53.017Z,79.38
2018-04-17T06:07:21.645Z,79.30
2018-04-17T06:09:50.254Z,79.04
2018-04-17T06:12:18.850Z,78.87
2018-04-17T06:14:47.497Z,77.35
2018-04-17T06:17:16.112Z,77.40
2018-04-17T06:19:44.760Z,77.70
2018-04-17T06:22:13.368Z,77.88
2018-04-17T06:24:42.013Z,78.00
2018-04-17T06:27:10.614Z,76.61
2018-04-17T06:29:39.253Z,76.67
2018-04-17T06:32:07.861Z,76.73
2018-04-17T06:34:36.500Z,76.76
2018-04-17T06:37:05.105Z,76.40
2018-04-17T06:39:33.742Z,75.93
2018-04-17T06:42:02.369Z,76.23
2018-04-17T06:44:30.983Z,76.09
2018-04-17T06:46:59.588Z,74.27
2018-04-17T06:49:28.222Z,74.37
2018-04-17T06:51:56.828Z,74.01
2018-04-17T06:54:25.476Z,73.89
2018-04-17T06:56:54.074Z,73.58
2018-04-17T06:59:24.964Z,71.61
2018-04-17T07:01:53.579Z,71.71
2018-04-17T07:04:22.190Z,71.89
2018-04-17T07:06:50.843Z,71.60
2018-04-17T07:09:19.450Z,71.79
2018-04-17T07:11:48.089Z,71.99
2018-04-17T07:14:16.689Z,71.81
2018-04-17T07:16:45.327Z,70.83
2018-04-17T07:19:13.934Z,68.34
2018-04-17T07:21:42.575Z,68.71
2018-04-17T07:24:11.192Z,68.77
2018-04-17T07:26:39.834Z,69.13
2018-04-17T07:29:08.459Z,68.61
2018-04-17T07:31:37.105Z,68.29
2018-04-17T07:34:05.716Z,67.82
2018-04-17T07:36:34.351Z,65.37
2018-04-17T07:39:02.960Z,65.47
2018-04-17T07:41:31.596Z,64.72
2018-04-17T07:44:00.212Z,65.09
2018-04-17T07:46:28.877Z,64.75
2018-04-17T07:49:06.350Z,64.75
2018-04-17T07:51:35.053Z,65.40
2018-04-17T07:54:03.713Z,63.96
2018-04-17T07:56:32.335Z,64.08
2018-04-17T07:59:00.968Z,63.36
2018-04-17T08:01:29.614Z,61.21
2018-04-17T08:03:58.268Z,61.75
2018-04-17T08:06:26.917Z,61.50
2018-04-17T08:08:55.563Z,61.45
2018-04-17T08:11:24.195Z,61.65
2018-04-17T08:13:52.880Z,58.93
2018-04-17T08:16:21.521Z,60.89
2018-04-17T08:18:50.197Z,61.09
2018-04-17T08:21:18.818Z,57.43
2018-04-17T08:23:47.466Z,58.20
2018-04-17T08:26:16.102Z,59.04
2018-04-17T08:28:44.747Z,58.96
2018-04-17T08:31:13.383Z,59.48
2018-04-17T08:33:42.019Z,58.98
2018-04-17T08:36:10.652Z,58.12
2018-04-17T08:38:39.294Z,55.38
2018-04-17T08:41:07.935Z,54.91
2018-04-17T08:43:36.530Z,55.22
2018-04-17T08:46:05.188Z,54.11
2018-04-17T08:48:33.811Z,53.82
2018-04-17T08:51:02.450Z,54.93
2018-04-17T08:53:31.081Z,53.40
2018-04-17T08:55:59.716Z,53.09
2018-04-17T08:58:28.327Z,52.93
2018-04-17T09:00:56.977Z,54.02
2018-04-17T09:03:25.583Z,50.53
2018-04-17T09:05:54.219Z,52.77
2018-04-17T09:08:22.825Z,52.16
2018-04-17T09:10:51.471Z,51.69
2018-04-17T09:13:20.098Z,52.58
2018-04-17T09:15:48.730Z,52.56
2018-04-17T09:18:17.366Z,52.29
2018-04-17T09:20:46.003Z,50.11
2018-04-17T09:23:14.611Z,51.19
2018-04-17T09:25:43.262Z,51.61
2018-04-17T09:28:12.820Z,51.66
2018-04-17T09:30:41.435Z,52.80
2018-04-17T09:33:10.128Z,52.04
2018-04-17T09:35:38.908Z,51.30
2018-04-17T09:38:07.547Z,50.74
2018-04-17T09:40:36.181Z,51.30
2018-04-17T09:43:04.885Z,47.08
2018-04-17T09:45:33.427Z,49.61
2018-04-17T09:48:02.063Z,46.51
2018-04-17T09:50:30.922Z,47.93
2018-04-17T09:52:59.511Z,48.67
2018-04-17T09:55:28.118Z,48.34
2018-04-17T09:57:56.753Z,46.02
2018-04-17T10:00:25.367Z,46.18
2018-04-17T10:02:54.022Z,45.02
2018-04-17T10:05:22.630Z,44.75
2018-04-17T10:07:51.309Z,46.69
2018-04-17T10:10:19.919Z,45.05
2018-04-17T10:12:48.574Z,44.20
2018-04-17T10:15:17.181Z,42.50
2018-04-17T10:17:45.836Z,43.39
2018-04-17T10:20:15.329Z,44.53
2018-04-17T10:22:43.939Z,42.19
2018-04-17T10:25:12.584Z,42.65
2018-04-17T10:27:41.183Z,44.69
2018-04-17T10:30:09.836Z,42.95
2018-04-17T10:32:38.441Z,41.63
2018-04-17T10:35:07.092Z,42.53
2018-04-17T10:37:35.722Z,40.64
2018-04-17T10:40:04.380Z,41.96
2018-04-17T10:42:33.008Z,42.50
2018-04-17T10:45:01.656Z,41.61
2018-04-17T10:47:30.275Z,45.28
2018-04-17T10:49:58.923Z,47.25
2018-04-17T10:52:27.564Z,42.91
2018-04-17T10:54:56.231Z,42.01
2018-04-17T10:57:24.841Z,40.58
2018-04-17T10:59:53.492Z,41.25
2018-04-17T11:02:22.124Z,40.69
2018-04-17T11:04:50.842Z,41.34
2018-04-17T11:07:19.384Z,40.67
2018-04-17T11:09:48.007Z,40.91
2018-04-17T11:12:16.642Z,40.80
2018-04-17T11:14:45.280Z,43.07
2018-04-17T11:17:13.953Z,42.11
2018-04-17T11:19:42.566Z,41.78
2018-04-17T11:22:11.203Z,43.20
2018-04-17T11:24:39.817Z,42.07
2018-04-17T11:27:08.469Z,42.08
2018-04-17T11:29:37.104Z,40.05
2018-04-17T11:32:05.755Z,40.59
2018-04-17T11:34:34.404Z,37.97
2018-04-17T11:37:03.039Z,39.45
2018-04-17T11:39:31.659Z,39.58
2018-04-17T11:42:00.312Z,39.80
2018-04-17T11:44:28.928Z,40.49
2018-04-17T11:46:57.567Z,37.56
2018-04-17T11:49:26.201Z,36.98
2018-04-17T11:51:54.886Z,38.27
2018-04-17T11:54:23.503Z,39.19
2018-04-17T11:56:52.129Z,40.09
2018-04-17T11:59:20.772Z,37.60
2018-04-17T12:01:51.637Z,37.69
2018-04-17T12:04:20.258Z,36.74
2018-04-17T12:06:48.875Z,39.88
2018-04-17T12:09:17.521Z,40.27
2018-04-17T12:11:46.139Z,40.88
2018-04-17T12:14:14.788Z,41.70
2018-04-17T12:16:43.427Z,42.27
2018-04-17T12:19:12.068Z,43.25
2018-04-17T12:21:40.695Z,41.08
2018-04-17T12:24:09.340Z,39.94
2018-04-17T12:26:37.959Z,41.44
2018-04-17T12:29:06.601Z,41.76
2018-04-17T12:31:35.227Z,38.72
2018-04-17T12:34:03.911Z,41.44
2018-04-17T12:36:32.487Z,38.56
2018-04-17T12:39:01.131Z,39.64
2018-04-17T12:41:29.763Z,38.58
2018-04-17T12:43:58.419Z,37.78
2018-04-17T12:46:27.043Z,38.45
2018-04-17T12:48:55.699Z,39.77
2018-04-17T12:51:24.317Z,38.10
2018-04-17T12:53:52.969Z,41.15
2018-04-17T12:56:21.604Z,42.68
2018-04-17T12:58:50.243Z,38.67
2018-04-17T13:01:18.892Z,38.83
2018-04-17T13:03:47.517Z,38.46
2018-04-17T13:06:16.160Z,37.85
2018-04-17T13:08:44.838Z,38.25
2018-04-17T13:11:13.472Z,39.05
2018-04-17T13:13:42.106Z,38.04
2018-04-17T13:16:10.765Z,39.24
2018-04-17T13:18:39.424Z,39.84
2018-04-17T13:21:08.084Z,37.63
2018-04-17T13:23:36.698Z,40.51
2018-04-17T13:26:05.363Z,40.47
2018-04-17T13:28:33.967Z,40.40
2018-04-17T13:31:02.632Z,41.81
2018-04-17T13:33:31.239Z,39.11
2018-04-17T13:35:59.911Z,40.02
2018-04-17T13:38:28.526Z,40.76
2018-04-17T13:40:57.131Z,39.36
2018-04-17T13:43:25.793Z,39.38
2018-04-17T13:45:54.408Z,39.21
2018-04-17T13:48:23.059Z,41.29
2018-04-17T13:50:52.591Z,40.91
2018-04-17T13:53:21.223Z,39.61
2018-04-17T13:55:49.861Z,39.87
2018-04-17T13:58:18.525Z,38.69
2018-04-17T14:00:47.169Z,38.86
2018-04-17T14:03:16.493Z,37.38
2018-04-17T14:05:45.060Z,38.11
2018-04-17T14:08:17.016Z,38.25
2018-04-17T14:10:45.618Z,38.81
2018-04-17T14:13:14.271Z,40.24
2018-04-17T14:15:43.507Z,39.46
2018-04-17T14:18:12.079Z,40.71
2018-04-17T14:20:40.741Z,39.54
2018-04-17T14:23:09.398Z,38.78
2018-04-17T14:25:38.367Z,37.63
2018-04-17T14:28:07.245Z,37.35
2018-04-17T14:30:36.743Z,41.99
2018-04-17T14:33:05.686Z,41.70
2018-04-17T14:35:34.887Z,40.52
2018-04-17T14:38:03.509Z,40.43
2018-04-17T14:40:33.828Z,39.78
2018-04-17T14:43:03.225Z,40.55
2018-04-17T14:45:36.340Z,39.47
2018-04-17T14:48:11.821Z,39.36
2018-04-17T14:50:41.299Z,35.02
2018-04-17T14:53:09.966Z,35.28
2018-04-17T14:55:39.255Z,39.68
2018-04-17T14:58:13.755Z,38.50
2018-04-17T15:00:44.619Z,39.68
2018-04-17T15:03:15.375Z,40.83
2018-04-17T15:05:50.027Z,38.82
2018-04-17T15:08:26.260Z,40.18
2018-04-17T15:10:57.668Z,40.92
2018-04-17T15:13:30.751Z,40.67
2018-04-17T15:16:00.844Z,39.50
2018-04-17T15:18:29.816Z,39.81
2018-04-17T15:21:00.201Z,39.33
2018-04-17T15:26:16.558Z,39.34
2018-04-17T15:28:45.798Z,39.81
2018-04-17T15:31:14.725Z,37.05
2018-04-17T15:36:36.877Z,36.21
2018-04-17T15:39:08.227Z,38.87
2018-04-17T15:41:40.885Z,37.91
2018-04-17T15:44:10.121Z,38.62
2018-04-17T15:49:36.555Z,36.36
2018-04-17T15:52:12.602Z,36.73
2018-04-17T15:54:48.335Z,37.50
2018-04-17T15:57:16.962Z,39.18
2018-04-17T15:59:45.758Z,38.61
2018-04-17T16:02:14.374Z,38.48
2018-04-17T16:04:43.016Z,38.10
2018-04-17T16:07:11.611Z,36.58
2018-04-17T16:09:45.168Z,38.23
2018-04-17T16:12:14.494Z,38.21
2018-04-17T16:14:43.571Z,34.70
2018-04-17T16:17:12.056Z,36.70
2018-04-17T16:19:41.107Z,37.31
2018-04-17T16:22:09.799Z,35.75
2018-04-17T16:24:38.690Z,37.28
2018-04-17T16:27:09.679Z,39.15
2018-04-17T16:29:39.916Z,38.35
2018-04-17T16:32:08.761Z,37.47
2018-04-17T16:34:37.587Z,39.02
2018-04-17T16:37:06.397Z,39.82
2018-04-17T16:39:39.606Z,41.81
2018-04-17T16:42:08.670Z,44.78
2018-04-17T16:44:37.231Z,45.50
2018-04-17T16:47:06.292Z,45.18
2018-04-17T16:49:34.971Z,46.07
2018-04-17T16:52:04.081Z,46.79
2018-04-17T16:54:33.826Z,47.34
2018-04-17T16:57:02.996Z,47.84
2018-04-17T16:59:33.119Z,48.79
2018-04-17T17:02:14.036Z,49.65
2018-04-17T17:04:42.904Z,50.92
2018-04-17T17:07:11.641Z,52.36
2018-04-17T17:09:40.620Z,52.89
2018-04-17T17:12:09.234Z,53.25
2018-04-17T17:14:37.840Z,53.58
2018-04-17T17:17:08.576Z,54.04
2018-04-17T17:19:37.184Z,54.47
2018-04-17T17:22:05.826Z,54.75
2018-04-17T17:24:34.430Z,55.35
2018-04-17T17:27:03.123Z,55.47
2018-04-17T17:29:31.672Z,56.13
2018-04-17T17:32:00.965Z,56.75
2018-04-17T17:34:30.945Z,57.37
2018-04-17T17:37:00.206Z,56.15
2018-04-17T17:39:29.535Z,57.65
2018-04-17T17:41:58.529Z,58.38
2018-04-17T17:44:28.741Z,58.51
2018-04-17T17:46:59.045Z,59.77
2018-04-17T17:49:27.842Z,60.76
2018-04-17T17:51:56.703Z,60.44
2018-04-17T17:54:31.549Z,61.40
2018-04-17T17:57:03.643Z,61.96
2018-04-17T17:59:43.018Z,61.84
2018-04-17T18:02:11.954Z,60.47
2018-04-17T18:04:42.121Z,61.58
2018-04-17T18:07:10.985Z,60.64
2018-04-17T18:09:43.709Z,62.16
2018-04-17T18:12:29.733Z,61.34
2018-04-17T18:17:47.377Z,63.71
2018-04-17T18:20:24.029Z,63.75
2018-04-17T18:22:52.916Z,64.76
2018-04-17T18:25:21.904Z,65.41
2018-04-17T18:27:51.930Z,66.41
2018-04-17T18:30:22.357Z,66.85
2018-04-17T18:32:51.271Z,66.94
2018-04-17T18:35:21.105Z,66.68
2018-04-17T18:37:51.328Z,67.01
2018-04-17T18:40:21.650Z,67.51
2018-04-17T18:42:50.556Z,68.24
2018-04-17T18:45:20.405Z,67.03
2018-04-17T18:47:50.306Z,67.87
2018-04-17T18:50:19.206Z,68.77
2018-04-17T18:52:48.048Z,69.30
2018-04-17T18:55:16.969Z,69.55
2018-04-17T18:57:51.022Z,69.36
2018-04-17T19:00:20.876Z,69.20
2018-04-17T19:02:50.932Z,69.14
2018-04-17T19:05:20.293Z,67.43
2018-04-17T19:07:50.478Z,68.63
2018-04-17T19:10:20.595Z,68.89
2018-04-17T19:12:49.564Z,69.11
2018-04-17T19:15:20.867Z,68.79
2018-04-17T19:17:49.802Z,69.03
2018-04-17T19:20:18.654Z,69.62
2018-04-17T19:22:47.528Z,69.66
2018-04-17T19:25:16.365Z,69.85
2018-04-17T19:27:45.289Z,69.39
2018-04-17T19:30:14.161Z,69.34
2018-04-17T19:32:43.723Z,69.23
2018-04-17T19:35:17.197Z,69.67
2018-04-17T19:37:46.121Z,69.75
2018-04-17T19:40:15.330Z,69.78
2018-04-17T19:42:44.656Z,69.64
2018-04-17T19:45:13.904Z,69.99
2018-04-17T19:47:43.283Z,70.09
2018-04-17T19:50:12.214Z,70.02
2018-04-17T19:52:40.916Z,70.59
2018-04-17T19:55:10.022Z,70.40
2018-04-17T19:57:38.975Z,70.59
2018-04-17T20:00:07.812Z,70.91
2018-04-17T20:02:37.120Z,71.17
2018-04-17T20:05:08.729Z,71.13
2018-04-17T20:07:37.603Z,71.29
2018-04-17T20:10:10.272Z,70.20
2018-04-17T20:12:39.219Z,70.83
2018-04-17T20:15:10.383Z,71.29
2018-04-17T20:17:44.910Z,71.20
2018-04-17T20:20:16.462Z,71.11
2018-04-17T20:22:46.481Z,71.34
2018-04-17T20:25:18.203Z,71.61
2018-04-17T20:27:47.096Z,71.94
2018-04-17T20:30:16.064Z,71.88
2018-04-17T20:32:47.243Z,72.05
2018-04-17T20:35:16.198Z,71.13
2018-04-17T20:37:47.654Z,71.75
2018-04-17T20:40:18.139Z,70.97
2018-04-17T20:42:47.104Z,70.60
2018-04-17T20:45:19.043Z,71.24
2018-04-17T20:47:48.001Z,71.86
2018-04-17T20:50:34.599Z,70.69
2018-04-17T20:53:03.642Z,71.92
2018-04-17T20:55:32.773Z,72.56
2018-04-17T20:58:01.540Z,72.76
2018-04-17T21:00:39.599Z,72.50
2018-04-17T21:03:08.765Z,72.59
2018-04-17T21:05:39.119Z,73.05
2018-04-17T21:08:09.517Z,72.62
2018-04-17T21:10:41.186Z,72.52
2018-04-17T21:13:13.114Z,72.42
2018-04-17T21:15:42.059Z,70.81
2018-04-17T21:20:50.319Z,71.62
2018-04-17T21:23:18.935Z,72.49
2018-04-17T21:25:47.592Z,73.39
2018-04-17T21:28:16.727Z,73.41
2018-04-17T21:30:45.333Z,73.68
2018-04-17T21:33:13.964Z,73.71
2018-04-17T21:35:42.567Z,73.94
2018-04-17T21:38:11.215Z,73.24
2018-04-17T21:40:39.832Z,73.42
2018-04-17T21:43:08.466Z,74.01
2018-04-17T21:45:37.072Z,74.38
2018-04-17T21:48:05.713Z,74.46
2018-04-17T21:50:34.341Z,73.63
2018-04-17T21:53:02.985Z,73.89
2018-04-17T21:55:31.592Z,73.18
2018-04-17T21:58:00.231Z,73.44
2018-04-17T22:00:28.840Z,73.82
2018-04-17T22:02:57.481Z,74.25
2018-04-17T22:05:26.094Z,74.49
2018-04-17T22:07:54.740Z,74.57
2018-04-17T22:10:23.355Z,74.94
2018-04-17T22:12:51.971Z,75.14
2018-04-17T22:15:20.611Z,75.50
2018-04-17T22:17:49.216Z,75.56
2018-04-17T22:20:17.865Z,75.59
2018-04-17T22:22:46.460Z,75.61
2018-04-17T22:25:15.104Z,75.67
2018-04-17T22:27:43.710Z,75.63
2018-04-17T22:30:12.348Z,75.67
2018-04-17T22:32:40.961Z,74.66
2018-04-17T22:35:09.615Z,74.64
2018-04-17T22:37:38.219Z,75.04
2018-04-17T22:40:06.855Z,75.34
2018-04-17T22:42:35.468Z,75.42
2018-04-17T22:45:04.107Z,75.76
2018-04-17T22:47:32.705Z,75.82
2018-04-17T22:50:01.374Z,75.27
2018-04-17T22:52:29.974Z,76.23
2018-04-17T22:54:58.617Z,76.25
2018-04-17T22:57:27.223Z,76.44
2018-04-17T22:59:55.859Z,76.15
2018-04-17T23:02:24.493Z,75.96
2018-04-17T23:04:53.097Z,76.04
2018-04-17T23:07:21.736Z,75.02
2018-04-17T23:09:50.349Z,75.18
2018-04-17T23:12:18.999Z,74.65
2018-04-17T23:14:47.616Z,74.39
2018-04-17T23:17:16.251Z,75.05
2018-04-17T23:19:44.856Z,75.27
2018-04-17T23:22:16.403Z,75.26
2018-04-17T23:24:45.011Z,75.49
2018-04-17T23:27:13.659Z,75.59
2018-04-17T23:29:42.259Z,76.06
2018-04-17T23:32:10.895Z,76.00
2018-04-17T23:34:39.498Z,76.20
2018-04-17T23:37:08.135Z,76.54
2018-04-17T23:39:36.747Z,76.60
2018-04-17T23:42:05.538Z,76.54
2018-04-17T23:44:34.148Z,76.35
2018-04-17T23:47:02.792Z,76.63
2018-04-17T23:49:31.399Z,76.91
2018-04-17T23:52:00.986Z,76.72
2018-04-17T23:54:29.591Z,76.84
2018-04-17T23:56:58.195Z,77.17
2018-04-17T23:59:31.038Z,77.51
